Time;durP1;ratioP1;P1;durP2;ratioP2;P2;SDS_P1;SDS_P2;PMS_P1;PMS_P2;Temp;Humidity;BMP_temperature;BMP_pressure;BME280_temperature;BME280_humidity;BME280_pressure;Samples;Min_cycle;Max_cycle;Signal;HPM_P1;HPM_P2
2022/09/08 00:01:22;;;;;;;4.10;1.90;;;;;;;8.22;62.55;100736.24;84801;1321;22701;-75
2022/09/08 00:03:31;;;;;;;3.60;2.20;;;;;;;8.18;62.76;100739.32;84786;1329;22741;-74
2022/09/08 00:05:44;;;;;;;6.70;2.40;;;;;;;8.13;62.83;100739.40;84787;1322;22635;-76
2022/09/08 00:07:53;;;;;;;3.60;2.50;;;;;;;8.10;63.08;100735.30;84821;1327;22600;-75
2022/09/08 00:10:02;;;;;;;3.60;2.10;;;;;;;8.07;62.91;100732.61;84810;1329;22604;-75
2022/09/08 00:12:12;;;;;;;7.30;2.40;;;;;;;8.04;63.30;100736.66;84822;1327;22818;-74
2022/09/08 00:14:21;;;;;;;5.70;2.60;;;;;;;8.01;63.46;100732.04;84814;1326;22542;-74
2022/09/08 00:16:29;;;;;;;3.70;2.50;;;;;;;7.98;63.81;100730.02;84827;1327;24810;-75
2022/09/08 00:18:39;;;;;;;4.00;2.20;;;;;;;7.98;63.96;100726.72;84848;1327;25362;-73
2022/09/08 00:20:48;;;;;;;5.40;2.10;;;;;;;7.97;64.33;100724.64;84790;1327;22584;-75
2022/09/08 00:22:56;;;;;;;;;;;;;;;7.96;64.41;100725.02;84850;1328;22793;-76
2022/09/08 00:25:06;;;;;;;3.40;2.70;;;;;;;7.93;64.91;100730.46;84788;1322;24213;-76
2022/09/08 00:27:15;;;;;;;5.50;2.40;;;;;;;7.92;64.94;100730.65;84822;1324;22599;-74
2022/09/08 00:29:23;;;;;;;6.60;2.50;;;;;;;7.90;65.03;100731.05;84787;1326;22633;-74
2022/09/08 00:31:32;;;;;;;7.90;2.30;;;;;;;7.88;65.16;100733.00;84794;1318;22684;-75
2022/09/08 00:33:41;;;;;;;4.70;2.70;;;;;;;7.87;65.26;100738.06;84788;1327;25432;-74
2022/09/08 00:35:51;;;;;;;7.60;2.50;;;;;;;7.85;65.33;100739.50;84750;1327;22587;-74
2022/09/08 00:38:00;;;;;;;3.90;2.90;;;;;;;7.82;65.54;100736.43;84776;1328;22584;-74
2022/09/08 00:40:13;;;;;;;6.30;2.50;;;;;;;7.79;65.50;100735.10;84679;1325;22835;-76
2022/09/08 00:42:22;;;;;;;4.40;2.70;;;;;;;7.76;66.00;100736.05;84657;1330;23998;-75
2022/09/08 00:44:53;;;;;;;6.10;2.60;;;;;;;7.73;65.73;100732.45;84806;1327;22582;-73
2022/09/08 00:47:02;;;;;;;3.70;2.20;;;;;;;7.71;66.14;100726.56;84771;1329;22584;-76
2022/09/08 00:49:16;;;;;;;3.40;1.90;;;;;;;7.72;66.28;100723.43;84723;1324;22580;-76
2022/09/08 00:51:26;;;;;;;4.20;2.80;;;;;;;7.74;66.57;100717.84;84844;1328;22619;-74
2022/09/08 00:53:37;;;;;;;5.80;2.70;;;;;;;7.75;66.22;100716.61;84877;1325;22602;-74
2022/09/08 00:55:46;;;;;;;3.10;2.30;;;;;;;7.75;66.37;100716.42;84814;1318;22581;-74
2022/09/08 00:57:55;;;;;;;5.70;2.60;;;;;;;7.75;66.31;100714.34;84770;1328;25348;-73
2022/09/08 01:00:06;;;;;;;4.70;2.30;;;;;;;7.75;66.39;100712.61;84815;1327;22607;-74
2022/09/08 01:02:25;;;;;;;4.80;2.30;;;;;;;7.73;66.32;100710.40;84828;1327;22830;-73
2022/09/08 01:04:34;;;;;;;5.30;2.30;;;;;;;7.70;66.46;100711.48;84808;1327;23651;-75
2022/09/08 01:14:19;;;;;;;2.50;2.10;;;;;;;7.54;66.88;100712.34;84781;1326;22602;-75
2022/09/08 01:16:28;;;;;;;3.70;2.60;;;;;;;7.52;66.90;100711.52;84773;1326;22656;-73
2022/09/08 01:18:36;;;;;;;3.50;2.30;;;;;;;7.51;66.71;100706.69;84779;1327;25458;-73
2022/09/08 01:20:49;;;;;;;5.20;2.60;;;;;;;7.50;66.79;100708.77;84754;1327;25490;-74
2022/09/08 01:23:18;;;;;;;7.90;2.50;;;;;;;7.50;66.95;100709.99;84823;1327;24350;-73
2022/09/08 01:25:40;;;;;;;5.40;2.90;;;;;;;7.48;67.10;100709.86;84700;1325;22703;-75
2022/09/08 01:27:49;;;;;;;4.50;2.10;;;;;;;7.45;67.09;100708.02;84673;1325;22782;-75
2022/09/08 01:30:01;;;;;;;5.80;2.60;;;;;;;7.44;67.22;100708.04;84793;1326;22610;-75
2022/09/08 01:32:10;;;;;;;4.80;2.10;;;;;;;7.42;66.85;100709.80;84864;1327;25342;-74
2022/09/08 01:34:19;;;;;;;4.10;2.50;;;;;;;7.39;67.02;100711.07;84789;1328;22606;-73
2022/09/08 01:36:28;;;;;;;7.00;3.00;;;;;;;7.38;67.20;100713.34;84735;1330;24296;-76
2022/09/08 01:38:37;;;;;;;5.10;3.10;;;;;;;7.35;67.17;100710.98;84818;1327;22605;-73
2022/09/08 01:40:46;;;;;;;6.60;3.50;;;;;;;7.32;67.12;100717.48;84854;1323;22602;-75
2022/09/08 01:42:55;;;;;;;2.90;2.20;;;;;;;7.29;67.37;100718.23;84852;1326;22622;-73
2022/09/08 01:45:04;;;;;;;3.60;2.30;;;;;;;7.24;67.46;100714.30;84821;1327;22859;-74
2022/09/08 01:47:13;;;;;;;7.20;3.40;;;;;;;7.21;67.60;100717.84;84813;1325;22666;-75
2022/09/08 01:49:23;;;;;;;3.70;2.60;;;;;;;7.18;67.80;100714.08;84781;1325;26063;-73
2022/09/08 01:51:30;;;;;;;;;;;;;;;7.15;67.58;100715.01;84804;1327;22576;-75
2022/09/08 01:53:38;;;;;;;5.40;2.80;;;;;;;7.12;68.06;100718.70;84672;1332;24304;-76
2022/09/08 01:55:48;;;;;;;3.30;2.50;;;;;;;7.13;67.88;100716.42;84734;1328;22996;-76
2022/09/08 01:57:57;;;;;;;5.50;3.00;;;;;;;7.13;67.84;100711.92;84774;1327;22671;-74
2022/09/08 02:00:09;;;;;;;3.50;2.50;;;;;;;7.12;68.01;100710.71;84723;1327;23915;-75
2022/09/08 02:02:18;;;;;;;4.40;2.60;;;;;;;7.14;67.93;100706.36;84819;1325;23968;-75
2022/09/08 02:04:26;;;;;;;4.00;2.90;;;;;;;7.18;67.61;100707.66;84786;1327;23772;-74
2022/09/08 02:06:36;;;;;;;5.80;2.80;;;;;;;7.19;67.64;100711.11;84753;1327;22584;-74
2022/09/08 02:08:51;;;;;;;8.20;3.00;;;;;;;7.17;67.53;100713.91;84742;1327;25446;-75
2022/09/08 02:11:00;;;;;;;4.00;2.60;;;;;;;7.14;67.75;100710.50;84794;1327;24267;-75
2022/09/08 02:13:09;;;;;;;4.90;2.80;;;;;;;7.13;67.57;100704.27;84821;1327;22590;-75
2022/09/08 02:15:18;;;;;;;4.80;3.10;;;;;;;7.14;67.50;100704.45;84810;1327;22601;-75
2022/09/08 02:17:28;;;;;;;5.90;2.70;;;;;;;7.14;67.33;100705.48;84845;1327;22588;-74
2022/09/08 02:19:36;;;;;;;4.30;2.70;;;;;;;7.15;67.36;100704.27;84850;1325;22897;-76
2022/09/08 02:21:45;;;;;;;5.00;2.80;;;;;;;7.16;67.15;100706.33;84852;1327;24181;-75
2022/09/08 02:23:54;;;;;;;9.80;3.10;;;;;;;7.16;67.32;100706.33;84787;1322;22785;-72
2022/09/08 02:26:03;;;;;;;3.60;2.40;;;;;;;7.16;67.35;100706.14;84814;1322;22688;-75
2022/09/08 02:28:12;;;;;;;3.90;2.70;;;;;;;7.16;67.28;100707.88;84769;1326;22600;-75
2022/09/08 02:30:22;;;;;;;4.40;2.90;;;;;;;7.16;67.47;100711.34;84750;1327;24693;-75
2022/09/08 02:32:30;;;;;;;4.80;4.20;;;;;;;7.17;67.57;100718.95;84753;1327;25306;-74
2022/09/08 02:34:39;;;;;;;6.10;3.20;;;;;;;7.16;67.58;100720.02;84772;1326;22653;-75
2022/09/08 02:36:48;;;;;;;3.40;2.70;;;;;;;7.14;67.31;100725.61;84741;1329;22588;-76
2022/09/08 02:38:58;;;;;;;5.50;3.10;;;;;;;7.13;67.37;100726.33;84636;1332;25490;-77
2022/09/08 02:41:07;;;;;;;5.50;3.20;;;;;;;7.09;67.41;100723.44;84660;1329;22789;-74
2022/09/08 02:43:16;;;;;;;5.90;3.00;;;;;;;7.07;67.28;100723.83;84768;1327;23930;-74
2022/09/08 02:45:25;;;;;;;5.00;3.10;;;;;;;7.04;67.51;100721.45;84756;1327;22588;-76
2022/09/08 02:47:36;;;;;;;6.00;3.10;;;;;;;7.01;67.63;100718.91;84745;1328;22621;-75
2022/09/08 02:49:45;;;;;;;5.50;3.30;;;;;;;6.98;67.82;100714.96;84784;1326;25425;-74
2022/09/08 02:51:55;;;;;;;7.80;3.60;;;;;;;6.95;67.78;100714.16;84731;1325;23460;-75
2022/09/08 02:54:02;;;;;;;;;;;;;;;6.92;68.25;100716.64;84761;1328;23935;-77
2022/09/08 02:56:11;;;;;;;6.20;3.20;;;;;;;6.87;68.41;100718.63;84800;1325;25295;-74
2022/09/08 02:58:20;;;;;;;9.30;3.30;;;;;;;6.86;68.19;100719.52;84817;1327;23186;-76
2022/09/08 03:00:32;;;;;;;3.80;2.90;;;;;;;6.85;68.76;100721.27;84809;1327;22602;-77
2022/09/08 03:02:41;;;;;;;3.60;2.70;;;;;;;6.83;68.53;100720.61;84771;1327;22731;-76
2022/09/08 03:04:50;;;;;;;6.00;3.30;;;;;;;6.80;68.78;100721.18;84796;1327;22613;-74
2022/09/08 03:06:59;;;;;;;4.00;2.70;;;;;;;6.80;68.72;100725.52;84822;1327;25280;-77
2022/09/08 03:09:08;;;;;;;4.40;3.20;;;;;;;6.79;68.99;100724.99;84700;1330;22611;-76
2022/09/08 03:11:17;;;;;;;6.90;3.20;;;;;;;6.78;68.79;100724.15;84747;1327;22593;-76
2022/09/08 03:13:26;;;;;;;5.10;3.10;;;;;;;6.76;69.02;100724.89;84798;1326;22581;-73
2022/09/08 03:15:35;;;;;;;4.50;3.40;;;;;;;6.77;68.84;100721.40;84756;1327;22653;-74
2022/09/08 03:17:45;;;;;;;4.60;2.90;;;;;;;6.78;69.12;100715.14;84768;1327;22828;-75
2022/09/08 03:19:54;;;;;;;7.20;3.40;;;;;;;6.81;69.21;100714.75;84779;1321;22615;-75
2022/09/08 03:22:03;;;;;;;8.30;3.80;;;;;;;6.83;68.90;100712.80;84793;1329;24366;-74
2022/09/08 03:24:13;;;;;;;7.80;3.90;;;;;;;6.85;68.78;100711.55;84783;1326;23837;-75
2022/09/08 03:26:24;;;;;;;7.60;3.50;;;;;;;6.87;68.77;100710.30;84733;1327;24236;-75
2022/09/08 03:28:32;;;;;;;6.30;3.10;;;;;;;6.87;68.98;100709.09;84819;1326;22616;-76
2022/09/08 03:30:41;;;;;;;4.90;3.20;;;;;;;6.86;68.57;100710.84;84794;1327;25321;-75
2022/09/08 03:32:50;;;;;;;5.20;3.30;;;;;;;6.83;68.69;100705.88;84785;1326;25415;-74
2022/09/08 03:34:59;;;;;;;11.30;3.50;;;;;;;6.79;68.70;100704.21;84792;1327;22616;-75
2022/09/08 03:37:08;;;;;;;7.30;3.90;;;;;;;6.76;68.69;100704.27;84741;1327;22669;-75
2022/09/08 03:39:18;;;;;;;6.40;3.60;;;;;;;6.73;68.64;100701.52;84793;1327;25336;-74
2022/09/08 03:41:29;;;;;;;7.40;3.50;;;;;;;6.70;68.84;100701.58;84807;1325;22928;-76
2022/09/08 03:43:40;;;;;;;7.90;2.90;;;;;;;6.67;68.55;100700.75;84826;1325;22686;-75
2022/09/08 03:45:49;;;;;;;7.10;3.40;;;;;;;6.65;68.81;100700.61;84810;1326;25356;-77
2022/09/08 03:47:58;;;;;;;9.10;3.30;;;;;;;6.65;68.84;100702.36;84842;1328;22853;-75
2022/09/08 03:50:08;;;;;;;13.00;3.90;;;;;;;6.65;68.48;100704.95;84847;1318;24413;-75
2022/09/08 03:52:18;;;;;;;;;;;;;;;6.68;68.31;100708.53;84699;1330;22693;-74
2022/09/08 03:56:56;;;;;;;6.80;3.50;;;;;;;6.80;68.33;100710.78;84777;1326;22639;-74
2022/09/08 03:59:05;;;;;;;5.90;3.60;;;;;;;6.84;67.97;100713.81;84792;1326;22584;-74
2022/09/08 04:01:15;;;;;;;5.40;3.10;;;;;;;6.85;67.70;100713.29;84656;1332;22707;-75
2022/09/08 04:03:28;;;;;;;7.20;3.50;;;;;;;6.86;68.04;100717.10;84809;1327;22578;-75
2022/09/08 04:05:38;;;;;;;8.30;3.50;;;;;;;6.84;67.78;100715.73;84763;1323;22575;-75
2022/09/08 04:07:47;;;;;;;8.10;3.50;;;;;;;6.83;68.13;100709.69;84781;1326;24266;-73
2022/09/08 04:09:56;;;;;;;8.10;3.40;;;;;;;6.81;67.80;100708.16;84765;1327;23936;-74
2022/09/08 04:12:06;;;;;;;8.10;3.50;;;;;;;6.79;68.06;100705.41;84779;1327;23911;-76
2022/09/08 04:14:15;;;;;;;12.40;3.90;;;;;;;6.78;67.80;100707.67;84788;1327;22612;-75
2022/09/08 04:16:24;;;;;;;5.60;3.10;;;;;;;6.79;67.64;100705.91;84710;1327;24938;-74
2022/09/08 04:18:33;;;;;;;6.40;3.50;;;;;;;6.84;67.73;100705.49;84687;1330;25452;-75
2022/09/08 04:20:42;;;;;;;10.50;3.60;;;;;;;6.90;67.47;100701.06;84745;1327;22611;-75
2022/09/08 04:22:51;;;;;;;7.40;3.60;;;;;;;6.98;67.35;100705.41;84797;1326;22677;-74
2022/09/08 04:25:01;;;;;;;5.20;3.30;;;;;;;7.05;67.23;100701.14;84797;1326;22674;-75
2022/09/08 04:27:10;;;;;;;6.60;3.60;;;;;;;7.13;66.79;100696.48;84054;1325;1002765;-74
2022/09/08 04:29:19;;;;;;;9.10;3.50;;;;;;;7.21;66.83;100697.89;84810;1326;24285;-76
2022/09/08 04:31:27;;;;;;;8.60;3.60;;;;;;;7.28;66.63;100698.98;84795;1326;22600;-74
2022/09/08 04:33:36;;;;;;;8.30;3.00;;;;;;;7.34;66.30;100698.50;84772;1324;23071;-74
2022/09/08 04:35:45;;;;;;;6.70;3.10;;;;;;;7.41;65.81;100693.69;84786;1326;22581;-75
2022/09/08 04:37:54;;;;;;;6.80;2.80;;;;;;;7.47;65.97;100690.09;84804;1326;22590;-75
2022/09/08 04:40:03;;;;;;;5.50;3.20;;;;;;;7.55;65.62;100688.73;84787;1327;22682;-75
2022/09/08 04:42:12;;;;;;;8.50;2.90;;;;;;;7.61;65.69;100689.80;84808;1327;25630;-74
2022/09/08 04:44:20;;;;;;;8.70;3.70;;;;;;;7.70;65.50;100691.88;84801;1325;22577;-75
2022/09/08 04:46:29;;;;;;;11.40;3.40;;;;;;;7.79;65.21;100696.73;84779;1327;22576;-74
2022/09/08 04:48:40;;;;;;;6.40;3.40;;;;;;;7.87;65.06;100704.20;84789;1327;22589;-74
2022/09/08 04:50:55;;;;;;;10.00;3.40;;;;;;;7.95;64.98;100703.65;84797;1326;22596;-76
2022/09/08 04:53:04;;;;;;;8.00;3.70;;;;;;;8.04;64.82;100699.81;84797;1329;24037;-76
2022/09/08 04:55:13;;;;;;;4.50;2.80;;;;;;;8.15;64.31;100702.02;84758;1327;25304;-75
2022/09/08 04:57:22;;;;;;;7.70;3.20;;;;;;;8.25;64.04;100699.70;84696;1328;25440;-73
2022/09/08 04:59:30;;;;;;;4.80;3.00;;;;;;;8.35;63.86;100697.39;84780;1322;24311;-74
2022/09/08 05:01:40;;;;;;;7.10;2.60;;;;;;;8.45;63.65;100701.86;84685;1325;22576;-74
2022/09/08 05:03:51;;;;;;;7.80;3.50;;;;;;;8.57;63.51;100703.15;84784;1327;25510;-75
2022/09/08 05:06:05;;;;;;;7.20;3.30;;;;;;;8.67;63.13;100699.58;84751;1324;22590;-74
2022/09/08 05:08:13;;;;;;;8.50;3.50;;;;;;;8.78;63.11;100696.33;84771;1327;22683;-76
2022/09/08 05:10:23;;;;;;;7.50;3.10;;;;;;;8.89;62.69;100697.45;84643;1329;22646;-74
2022/09/08 05:12:35;;;;;;;10.10;3.50;;;;;;;9.01;62.22;100695.58;84816;1326;22587;-74
2022/09/08 05:14:44;;;;;;;9.30;3.00;;;;;;;9.14;61.70;100699.93;84804;1327;22594;-73
2022/09/08 05:16:53;;;;;;;6.20;3.20;;;;;;;9.30;61.59;100700.20;84793;1329;24221;-75
2022/09/08 05:19:04;;;;;;;5.20;2.60;;;;;;;9.61;62.71;100696.37;84928;1307;25257;-75
2022/09/08 05:21:14;;;;;;;6.20;3.10;;;;;;;10.58;64.11;100701.05;84829;1323;22759;-74
2022/09/08 05:23:23;;;;;;;7.10;3.00;;;;;;;12.07;62.48;100699.58;84737;1327;22623;-75
2022/09/08 05:25:34;;;;;;;4.80;2.90;;;;;;;13.46;59.36;100699.92;84788;1327;22654;-77
2022/09/08 05:27:43;;;;;;;5.40;2.50;;;;;;;14.85;56.83;100698.61;84354;1327;614938;-74
2022/09/08 05:29:54;;;;;;;11.90;2.90;;;;;;;16.07;52.71;100697.11;84721;1325;22617;-73
2022/09/08 05:32:06;;;;;;;6.20;3.20;;;;;;;17.15;49.10;100693.85;84847;1326;22623;-75
2022/09/08 05:34:18;;;;;;;8.10;2.60;;;;;;;17.99;44.94;100691.16;84829;1327;22589;-74
2022/09/08 05:36:29;;;;;;;7.30;3.30;;;;;;;18.65;44.75;100688.80;84823;1322;23306;-73
2022/09/08 05:38:39;;;;;;;7.10;3.20;;;;;;;19.28;43.06;100685.27;84789;1325;25442;-71
2022/09/08 05:40:48;;;;;;;5.60;2.80;;;;;;;19.32;41.68;100686.02;84788;1327;22574;-72
2022/09/08 05:42:57;;;;;;;7.00;3.30;;;;;;;18.95;40.23;100683.08;84799;1325;22657;-74
2022/09/08 05:45:08;;;;;;;8.80;2.70;;;;;;;18.63;40.27;100679.80;84773;1327;22626;-74
2022/09/08 05:47:17;;;;;;;5.00;2.60;;;;;;;18.33;40.04;100681.56;84807;1318;22613;-74
2022/09/08 05:49:26;;;;;;;6.20;2.70;;;;;;;17.97;40.15;100684.57;84781;1322;22597;-74
2022/09/08 05:51:35;;;;;;;7.00;3.20;;;;;;;17.71;40.46;100684.77;84769;1327;22676;-75
2022/09/08 05:53:44;;;;;;;8.40;3.20;;;;;;;17.79;41.34;100684.64;84780;1322;24388;-72
2022/09/08 05:56:01;;;;;;;4.90;2.70;;;;;;;18.62;41.39;100681.02;84784;1327;25489;-74
2022/09/08 05:58:10;;;;;;;6.50;2.80;;;;;;;19.75;39.77;100672.55;84803;1327;22605;-74
2022/09/08 06:00:20;;;;;;;8.60;2.50;;;;;;;20.76;38.85;100669.60;84684;1328;22592;-75
2022/09/08 06:02:29;;;;;;;11.10;3.10;;;;;;;21.68;37.21;100659.29;84683;1331;22578;-74
2022/09/08 06:04:38;;;;;;;6.80;2.90;;;;;;;22.61;35.33;100662.14;84688;1329;25320;-73
2022/09/08 06:06:47;;;;;;;10.70;3.70;;;;;;;23.22;33.54;100663.93;84796;1327;23910;-72
2022/09/08 06:08:59;;;;;;;10.90;3.10;;;;;;;23.72;31.48;100665.23;84799;1326;22583;-75
2022/09/08 06:11:08;;;;;;;12.40;3.30;;;;;;;24.19;30.37;100672.05;84795;1318;22593;-72
2022/09/08 06:13:21;;;;;;;11.70;2.50;;;;;;;24.85;29.35;100669.95;84820;1327;26021;-74
2022/09/08 06:15:30;;;;;;;11.50;3.20;;;;;;;25.51;28.43;100666.74;84832;1326;23919;-74
2022/09/08 06:17:39;;;;;;;6.00;2.70;;;;;;;25.46;26.86;100665.66;84813;1318;22627;-74
2022/09/08 06:19:50;;;;;;;8.30;2.60;;;;;;;24.82;27.63;100666.31;84685;1329;22587;-73
2022/09/08 06:21:59;;;;;;;8.90;2.90;;;;;;;24.06;28.26;100662.58;84755;1324;23140;-74
2022/09/08 06:24:11;;;;;;;10.40;3.20;;;;;;;23.38;28.46;100663.20;84724;1332;25528;-74
2022/09/08 06:26:47;;;;;;;10.10;2.70;;;;;;;22.85;29.38;100662.77;84826;1329;22578;-74
2022/09/08 06:28:59;;;;;;;7.80;3.40;;;;;;;22.49;29.56;100661.41;84677;1325;25583;-74
2022/09/08 06:31:10;;;;;;;8.20;2.60;;;;;;;22.04;29.83;100658.63;84769;1327;22702;-75
2022/09/08 06:33:22;;;;;;;5.00;2.50;;;;;;;21.54;30.17;100658.40;84784;1326;24802;-74
2022/09/08 06:35:32;;;;;;;5.70;2.60;;;;;;;21.10;30.84;100663.67;84790;1322;22596;-73
2022/09/08 06:37:46;;;;;;;3.90;2.70;;;;;;;20.81;31.21;100668.13;84773;1327;23903;-73
2022/09/08 06:39:58;;;;;;;7.30;2.50;;;;;;;20.47;31.23;100674.77;84816;1327;22643;-73
2022/09/08 06:42:13;;;;;;;6.10;1.90;;;;;;;20.19;32.04;100670.81;84789;1326;22668;-72
2022/09/08 06:44:26;;;;;;;4.30;2.00;;;;;;;20.00;31.80;100673.43;84794;1326;24294;-73
2022/09/08 06:46:39;;;;;;;2.50;2.00;;;;;;;19.80;32.76;100670.28;84783;1327;22584;-74
2022/09/08 06:48:48;;;;;;;5.40;2.40;;;;;;;19.77;32.90;100671.55;84777;1327;22808;-73
2022/09/08 06:51:13;;;;;;;7.20;2.40;;;;;;;19.80;33.36;100670.80;84671;1331;24306;-74
2022/09/08 06:53:25;;;;;;;5.00;2.30;;;;;;;19.86;33.04;100674.84;84702;1328;22943;-71
2022/09/08 06:55:38;;;;;;;5.60;2.20;;;;;;;19.77;32.57;100680.77;84819;1322;23146;-71
2022/09/08 06:57:53;;;;;;;5.40;2.10;;;;;;;19.65;32.84;100681.68;84854;1328;22598;-73
2022/09/08 07:00:14;;;;;;;4.80;2.50;;;;;;;19.49;32.53;100686.98;84807;1326;22617;-71
2022/09/08 07:02:48;;;;;;;4.30;2.40;;;;;;;19.38;32.75;100686.86;84840;1327;22613;-72
2022/09/08 07:05:01;;;;;;;3.80;2.00;;;;;;;19.38;33.20;100691.85;84706;1329;22888;-73
2022/09/08 07:07:19;;;;;;;12.20;2.50;;;;;;;19.52;33.00;100692.91;84824;1327;22571;-73
2022/09/08 07:09:37;;;;;;;8.60;2.80;;;;;;;19.84;33.37;100694.94;84811;1322;22566;-73
2022/09/08 07:11:54;;;;;;;11.70;2.20;;;;;;;20.38;33.44;100700.10;84713;1330;25476;-71
2022/09/08 07:14:08;;;;;;;4.50;2.20;;;;;;;20.76;31.77;100705.77;84811;1322;24286;-74
2022/09/08 07:16:20;;;;;;;4.70;2.50;;;;;;;20.91;31.36;100694.14;84780;1326;25457;-72
2022/09/08 07:18:32;;;;;;;3.70;1.80;;;;;;;20.91;31.31;100694.02;84807;1321;23053;-72
2022/09/08 07:20:41;;;;;;;6.70;2.30;;;;;;;20.75;31.51;100688.86;84759;1327;23373;-73
2022/09/08 07:22:52;;;;;;;6.40;2.10;;;;;;;20.58;31.86;100689.77;84766;1327;22593;-73
2022/09/08 07:25:24;;;;;;;7.40;2.30;;;;;;;20.35;31.24;100690.71;84793;1322;24196;-74
2022/09/08 07:27:32;;;;;;;6.50;1.80;;;;;;;20.12;31.79;100687.63;84786;1322;22718;-72
2022/09/08 07:29:43;;;;;;;5.80;2.20;;;;;;;20.06;32.09;100683.95;84766;1327;23088;-73
2022/09/08 07:31:54;;;;;;;11.00;4.00;;;;;;;20.11;32.26;100682.73;84764;1326;22578;-73
2022/09/08 07:34:06;;;;;;;3.80;2.20;;;;;;;20.07;31.43;100679.14;84788;1327;22575;-73
2022/09/08 07:36:21;;;;;;;9.80;2.90;;;;;;;20.06;31.35;100676.20;84765;1323;22588;-74
2022/09/08 07:38:36;;;;;;;6.80;2.40;;;;;;;20.16;30.96;100678.88;84781;1311;24287;-73
2022/09/08 07:40:47;;;;;;;5.10;2.30;;;;;;;20.38;31.50;100682.55;84781;1326;23952;-73
2022/09/08 07:42:59;;;;;;;6.00;2.10;;;;;;;20.80;31.12;100686.49;84789;1327;22609;-73
2022/09/08 07:45:13;;;;;;;3.10;2.20;;;;;;;21.25;31.22;100685.69;84816;1326;23975;-73
2022/09/08 07:47:45;;;;;;;4.80;2.30;;;;;;;21.79;30.83;100684.09;84719;1330;22599;-74
2022/09/08 07:49:59;;;;;;;3.40;1.80;;;;;;;22.28;29.21;100688.55;84848;1325;22606;-74
2022/09/08 07:52:24;;;;;;;8.20;2.50;;;;;;;22.73;29.46;100696.48;84722;1325;22706;-71
2022/09/08 07:54:52;;;;;;;5.70;2.10;;;;;;;23.50;29.25;100697.45;84853;1326;22817;-72
2022/09/08 07:57:02;;;;;;;5.40;2.60;;;;;;;24.43;28.17;100699.35;84788;1326;22604;-71
2022/09/08 07:59:21;;;;;;;4.40;1.60;;;;;;;25.22;27.29;100699.70;84826;1325;23041;-71
2022/09/08 08:01:39;;;;;;;9.70;2.10;;;;;;;26.01;26.04;100699.82;84773;1328;22590;-72
2022/09/08 08:03:56;;;;;;;6.40;2.30;;;;;;;26.55;24.87;100700.43;84776;1327;24235;-73
2022/09/08 08:06:08;;;;;;;3.70;2.60;;;;;;;26.97;24.34;100686.84;84800;1327;22675;-71
2022/09/08 08:08:31;;;;;;;8.70;2.60;;;;;;;27.56;24.21;100682.59;84808;1327;22736;-71
2022/09/08 08:10:42;;;;;;;2.80;1.90;;;;;;;28.25;23.15;100681.70;84774;1327;22603;-74
2022/09/08 08:12:55;;;;;;;3.90;1.50;;;;;;;28.77;22.20;100693.83;84775;1325;22600;-73
2022/09/08 08:15:08;;;;;;;4.30;2.10;;;;;;;29.13;21.35;100692.55;84799;1321;22643;-71
2022/09/08 08:17:31;;;;;;;2.90;1.60;;;;;;;29.43;20.82;100690.63;84783;1326;22583;-71
2022/09/08 08:20:00;;;;;;;6.40;2.90;;;;;;;29.76;20.57;100681.88;84779;1326;22589;-72
2022/09/08 08:22:19;;;;;;;2.70;2.00;;;;;;;30.27;20.44;100680.84;84762;1326;22597;-74
2022/09/08 08:24:34;;;;;;;5.40;1.80;;;;;;;30.55;19.95;100671.90;84759;1327;22564;-74
2022/09/08 08:26:48;;;;;;;13.60;2.60;;;;;;;30.79;19.55;100668.95;84780;1327;22648;-72
2022/09/08 08:29:12;;;;;;;5.20;2.70;;;;;;;30.97;19.21;100667.84;84700;1328;22734;-71
2022/09/08 08:31:33;;;;;;;4.80;1.90;;;;;;;31.22;18.61;100664.61;84825;1326;22584;-72
2022/09/08 08:33:44;;;;;;;5.50;1.40;;;;;;;31.34;18.65;100663.21;84826;1324;23056;-74
2022/09/08 08:35:56;;;;;;;4.90;2.40;;;;;;;31.49;17.78;100670.84;84823;1327;22596;-73
2022/09/08 08:38:05;;;;;;;6.80;2.30;;;;;;;31.46;18.11;100674.27;84799;1326;22593;-72
2022/09/08 08:40:30;;;;;;;7.10;1.80;;;;;;;31.47;17.47;100680.92;84808;1326;26081;-74
2022/09/08 08:42:50;;;;;;;7.50;2.00;;;;;;;31.16;17.50;100677.45;84845;1323;22593;-72
2022/09/08 08:45:22;;;;;;;10.10;2.80;;;;;;;31.32;18.51;100674.91;84820;1324;22601;-76
2022/09/08 08:48:00;;;;;;;3.80;2.10;;;;;;;31.51;17.77;100683.88;84855;1327;22603;-77
2022/09/08 08:50:45;;;;;;;5.20;1.70;;;;;;;31.45;17.16;100671.45;84809;1326;25451;-71
2022/09/08 08:53:27;;;;;;;5.10;1.80;;;;;;;31.10;17.72;100672.23;84680;1330;25441;-77
2022/09/08 08:55:58;;;;;;;4.50;2.00;;;;;;;31.16;17.66;100661.63;84715;1327;22594;-72
2022/09/08 08:58:24;;;;;;;3.50;2.10;;;;;;;30.95;18.14;100666.44;84791;1328;22578;-73
2022/09/08 09:00:35;;;;;;;5.20;1.50;;;;;;;30.93;17.76;100667.40;84787;1327;22835;-73
2022/09/08 09:03:14;;;;;;;3.50;1.50;;;;;;;31.02;17.79;100666.58;84801;1322;24258;-74
2022/09/08 09:05:39;;;;;;;4.10;1.60;;;;;;;31.02;17.29;100661.71;84776;1323;22654;-73
2022/09/08 09:08:19;;;;;;;4.90;1.70;;;;;;;30.88;16.66;100657.80;84786;1326;22668;-74
2022/09/08 09:10:51;;;;;;;3.40;1.50;;;;;;;30.49;16.54;100650.95;84775;1327;24138;-72
2022/09/08 09:13:10;;;;;;;6.60;2.10;;;;;;;30.07;16.97;100648.42;84685;1327;22647;-74
2022/09/08 09:15:28;;;;;;;6.90;2.00;;;;;;;29.76;17.41;100649.29;84792;1326;22620;-74
2022/09/08 09:17:56;;;;;;;2.80;1.60;;;;;;;29.83;17.99;100648.72;84807;1327;22577;-75
2022/09/08 09:20:43;;;;;;;1.80;1.50;;;;;;;30.03;18.19;100650.38;84836;1326;24269;-74
2022/09/08 09:22:57;;;;;;;3.70;1.80;;;;;;;30.37;18.32;100642.40;84596;1326;22594;-72
2022/09/08 09:25:21;;;;;;;3.40;2.00;;;;;;;30.65;18.04;100638.48;84869;1327;22640;-73
2022/09/08 09:27:41;;;;;;;3.10;1.90;;;;;;;30.76;17.52;100635.78;84841;1323;22611;-75
2022/09/08 09:29:50;;;;;;;3.30;2.10;;;;;;;30.59;17.19;100626.15;84815;1325;22604;-73
2022/09/08 09:32:47;;;;;;;5.80;2.50;;;;;;;30.46;17.57;100620.42;84837;1327;22619;-73
2022/09/08 09:35:15;;;;;;;4.10;1.50;;;;;;;30.32;17.82;100619.42;84670;1327;24215;-73
2022/09/08 09:38:15;;;;;;;11.40;2.40;;;;;;;30.20;18.48;100622.45;84805;1326;22581;-73
2022/09/08 09:40:46;;;;;;;2.30;1.80;;;;;;;29.75;18.44;100621.39;84690;1330;24270;-74
2022/09/08 09:43:22;;;;;;;2.40;1.70;;;;;;;29.39;18.94;100618.05;84789;1325;24214;-73
2022/09/08 09:45:50;;;;;;;5.10;2.10;;;;;;;29.01;19.26;100614.62;84763;1327;23921;-72
2022/09/08 09:48:34;;;;;;;5.20;1.80;;;;;;;28.62;19.69;100613.05;84790;1327;22609;-73
2022/09/08 09:51:01;;;;;;;3.20;2.20;;;;;;;28.11;20.24;100604.95;84784;1326;22590;-71
2022/09/08 09:53:20;;;;;;;9.00;2.50;;;;;;;27.61;20.16;100601.02;84792;1326;23971;-72
2022/09/08 09:55:46;;;;;;;7.20;2.40;;;;;;;26.85;20.64;100598.04;84776;1326;22844;-73
2022/09/08 09:58:38;;;;;;;8.70;2.50;;;;;;;26.27;21.39;100609.28;84666;1329;22854;-73
2022/09/08 10:01:22;;;;;;;18.90;2.40;;;;;;;25.85;21.87;100607.23;84794;1327;22625;-72
2022/09/08 10:03:50;;;;;;;6.80;2.10;;;;;;;25.50;22.36;100609.92;84756;1326;24366;-72
2022/09/08 10:06:27;;;;;;;7.90;2.20;;;;;;;25.28;22.61;100610.98;84829;1324;22599;-72
2022/09/08 10:09:15;;;;;;;5.40;1.90;;;;;;;25.04;23.01;100606.59;84797;1313;22994;-72
2022/09/08 10:12:12;;;;;;;3.20;2.10;;;;;;;24.78;23.14;100611.05;84806;1326;22636;-73
2022/09/08 10:14:59;;;;;;;3.90;2.30;;;;;;;24.43;23.22;100612.92;84841;1327;22580;-73
2022/09/08 10:17:48;;;;;;;10.80;2.40;;;;;;;24.10;23.37;100611.63;84817;1326;22615;-75
2022/09/08 10:20:47;;;;;;;2.60;1.90;;;;;;;23.83;23.56;100614.25;84807;1325;24240;-72
2022/09/08 10:23:14;;;;;;;4.70;1.90;;;;;;;23.65;23.95;100610.29;84799;1326;23971;-73
2022/09/08 10:25:59;;;;;;;2.60;2.10;;;;;;;23.55;24.37;100612.10;84840;1326;22722;-74
2022/09/08 10:28:48;;;;;;;4.70;2.30;;;;;;;23.39;24.67;100615.60;84817;1323;24716;-72
2022/09/08 10:32:08;;;;;;;2.50;1.90;;;;;;;23.30;25.19;100615.89;84776;1326;24389;-72
2022/09/08 10:34:56;;;;;;;6.50;2.20;;;;;;;23.45;25.36;100622.39;84346;1333;22597;-73
2022/09/08 10:37:12;;;;;;;3.00;2.20;;;;;;;23.55;25.04;100618.29;84775;1327;24433;-71
2022/09/08 10:39:42;;;;;;;3.40;2.20;;;;;;;23.57;24.82;100617.92;84695;1328;22621;-73
2022/09/08 10:42:30;;;;;;;5.10;1.90;;;;;;;23.54;25.08;100619.32;84783;1322;22594;-73
2022/09/08 10:44:49;;;;;;;8.50;2.30;;;;;;;23.53;24.86;100611.51;84780;1326;22722;-74